Time;durP1;ratioP1;P1;durP2;ratioP2;P2;SDS_P1;SDS_P2;PMS_P1;PMS_P2;Temp;Humidity;BMP_temperature;BMP_pressure;BME280_temperature;BME280_humidity;BME280_pressure;Samples;Min_cycle;Max_cycle;Signal;HPM_P1;HPM_P2
2023/04/26 00:00:35;;;;;;;;;19.75;17.25;;;;;11.39;54.65;101440.72;4993031;28;45516;-83
2023/04/26 00:03:00;;;;;;;;;18.25;16.00;;;;;11.30;54.56;101432.94;4969845;28;45431;-83
2023/04/26 00:05:27;;;;;;;;;17.50;14.75;;;;;11.35;54.81;101441.72;5011121;28;45273;-84
2023/04/26 00:07:53;;;;;;;;;12.50;12.50;;;;;11.43;54.63;101463.81;4997871;28;45193;-83
2023/04/26 00:10:18;;;;;;;;;15.75;13.75;;;;;11.32;54.25;101441.81;4995758;28;44851;-83
2023/04/26 00:12:43;;;;;;;;;14.25;14.00;;;;;11.36;54.51;101450.63;5002663;28;45334;-84
2023/04/26 00:15:09;;;;;;;;;17.50;13.50;;;;;11.37;54.62;101444.38;5010875;28;45744;-84
2023/04/26 00:17:35;;;;;;;;;15.50;13.75;;;;;11.40;54.54;101450.50;4992122;28;45242;-84
2023/04/26 00:20:01;;;;;;;;;11.00;11.00;;;;;11.39;54.52;101445.19;4997523;28;45513;-84
2023/04/26 00:22:27;;;;;;;;;15.00;15.00;;;;;11.35;54.56;101433.72;5003755;28;45376;-84
2023/04/26 00:24:53;;;;;;;;;17.50;15.50;;;;;11.20;54.57;101410.03;4995682;28;45707;-83
2023/04/26 00:27:18;;;;;;;;;14.25;13.75;;;;;11.17;54.65;101415.47;5014298;28;45455;-84
2023/04/26 00:29:43;;;;;;;;;16.00;15.50;;;;;11.24;54.70;101439.34;4981393;28;45401;-83
2023/04/26 00:32:09;;;;;;;;;13.75;12.75;;;;;11.25;55.09;101430.38;4978573;28;45487;-83
2023/04/26 00:34:35;;;;;;;;;11.25;10.50;;;;;11.25;55.25;101426.84;4987453;28;47968;-84
2023/04/26 00:37:01;;;;;;;;;17.00;13.25;;;;;11.26;54.96;101423.22;5016539;28;45371;-83
2023/04/26 00:39:27;;;;;;;;;16.75;13.50;;;;;11.18;55.48;101415.41;5000215;28;45307;-84
2023/04/26 00:41:53;;;;;;;;;16.75;15.25;;;;;11.22;55.14;101422.44;4995017;28;45426;-84
2023/04/26 00:44:18;;;;;;;;;13.75;12.75;;;;;11.15;55.01;101418.16;5011235;28;45240;-83
2023/04/26 00:46:43;;;;;;;;;12.75;12.00;;;;;11.13;55.33;101401.28;4996117;28;45266;-84
2023/04/26 00:49:14;;;;;;;;;18.00;14.75;;;;;11.11;55.27;101404.00;4988227;28;45305;-84
2023/04/26 00:51:40;;;;;;;;;16.75;13.50;;;;;11.18;54.98;101407.41;4999551;28;45625;-84
2023/04/26 00:54:05;;;;;;;;;20.75;18.25;;;;;11.19;54.97;101406.47;4990631;28;47240;-83
2023/04/26 00:56:31;;;;;;;;;12.00;11.25;;;;;11.10;55.39;101409.38;4992005;28;46007;-83
2023/04/26 00:58:56;;;;;;;;;13.25;11.00;;;;;11.15;54.84;101417.28;4997631;28;45269;-84
2023/04/26 01:01:22;;;;;;;;;14.50;12.00;;;;;11.13;55.03;101396.81;4993198;28;45394;-84
2023/04/26 01:03:47;;;;;;;;;11.25;10.50;;;;;11.12;55.43;101397.72;4986007;28;55976;-84
2023/04/26 01:06:13;;;;;;;;;15.75;11.00;;;;;11.10;55.50;101394.22;5014941;28;45288;-83
2023/04/26 01:08:38;;;;;;;;;13.25;12.00;;;;;11.12;55.14;101395.06;5002872;28;45262;-83
2023/04/26 01:11:04;;;;;;;;;11.25;10.50;;;;;10.99;55.22;101368.69;4995406;28;45226;-84
2023/04/26 01:13:31;;;;;;;;;12.00;10.75;;;;;11.06;55.26;101387.19;5001035;28;45587;-84
2023/04/26 01:15:58;;;;;;;;;10.75;10.00;;;;;11.03;54.73;101389.06;4983516;28;46254;-84
2023/04/26 01:18:24;;;;;;;;;11.00;10.00;;;;;10.91;55.01;101374.22;4994789;28;45337;-84
2023/04/26 01:20:51;;;;;;;;;12.25;11.25;;;;;10.82;54.79;101371.75;4976732;28;45651;-83
2023/04/26 01:23:17;;;;;;;;;14.00;12.75;;;;;10.85;54.83;101388.56;4973912;28;47520;-84
2023/04/26 01:25:42;;;;;;;;;12.75;12.75;;;;;10.65;55.17;101351.66;4978918;28;45308;-84
2023/04/26 01:28:07;;;;;;;;;14.25;11.75;;;;;10.70;54.69;101363.09;5027025;28;45414;-84
2023/04/26 01:30:33;;;;;;;;;11.50;9.50;;;;;10.61;55.20;101339.31;5012134;28;45608;-83
2023/04/26 01:32:58;;;;;;;;;13.25;13.25;;;;;10.82;55.33;101374.44;5011349;28;51457;-83
2023/04/26 01:35:23;;;;;;;;;13.50;9.00;;;;;10.68;54.99;101342.72;5006453;28;45803;-83
2023/04/26 01:37:49;;;;;;;;;8.75;8.75;;;;;10.75;54.79;101363.88;5036391;28;45308;-83
2023/04/26 01:40:14;;;;;;;;;10.00;10.00;;;;;10.68;55.10;101359.59;5019059;28;59022;-83
2023/04/26 01:42:39;;;;;;;;;9.00;8.25;;;;;10.74;55.31;101374.59;5013477;28;45306;-83
2023/04/26 01:45:05;;;;;;;;;13.00;10.25;;;;;10.77;55.16;101371.84;5035437;28;45300;-84
2023/04/26 01:47:31;;;;;;;;;9.75;9.75;;;;;10.77;55.18;101363.84;5010581;28;45373;-83
2023/04/26 01:49:56;;;;;;;;;9.50;9.50;;;;;10.85;55.23;101371.69;5027121;28;45521;-83
2023/04/26 01:52:22;;;;;;;;;9.75;8.00;;;;;10.75;55.76;101352.31;5015033;28;46587;-84
2023/04/26 01:54:47;;;;;;;;;16.50;10.75;;;;;10.88;55.16;101372.50;5024614;28;45288;-83
2023/04/26 01:57:12;;;;;;;;;12.00;10.75;;;;;10.80;55.54;101368.25;5037429;28;44821;-84
2023/04/26 01:59:38;;;;;;;;;11.75;10.25;;;;;10.84;55.72;101386.84;5020229;28;45447;-84
2023/04/26 02:02:03;;;;;;;;;12.00;10.75;;;;;10.78;55.34;101364.75;5002971;28;48318;-84
2023/04/26 02:04:28;;;;;;;;;12.00;11.25;;;;;10.81;55.50;101375.31;5012679;28;49770;-83
2023/04/26 02:06:54;;;;;;;;;12.25;10.00;;;;;10.75;55.07;101369.22;5040634;28;45247;-84
2023/04/26 02:09:19;;;;;;;;;9.75;7.50;;;;;10.71;55.38;101353.31;5007079;28;45625;-83
2023/04/26 02:11:45;;;;;;;;;14.75;14.75;;;;;10.73;55.65;101352.34;5020427;28;45371;-85
2023/04/26 02:14:10;;;;;;;;;13.25;10.75;;;;;10.66;55.32;101344.50;5034511;28;45350;-83
2023/04/26 02:16:38;;;;;;;;;12.75;10.00;;;;;10.66;55.76;101357.88;5025547;28;45304;-83
2023/04/26 02:19:04;;;;;;;;;11.75;11.50;;;;;10.50;55.71;101344.00;5009764;28;45435;-84
2023/04/26 02:21:29;;;;;;;;;13.50;12.75;;;;;10.62;55.51;101358.84;5001298;28;48256;-84
2023/04/26 02:23:56;;;;;;;;;11.25;10.00;;;;;10.65;55.72;101358.78;5004099;28;45353;-84
2023/04/26 02:26:21;;;;;;;;;14.25;10.75;;;;;10.67;55.66;101365.84;5006006;28;45328;-83
2023/04/26 02:28:46;;;;;;;;;10.50;8.75;;;;;10.69;55.81;101361.38;5021043;28;45465;-83
2023/04/26 02:31:12;;;;;;;;;14.00;13.50;;;;;10.62;55.54;101357.06;5020656;28;46593;-83
2023/04/26 02:33:37;;;;;;;;;14.75;11.25;;;;;10.66;55.89;101366.78;5013016;28;45395;-83
2023/04/26 02:36:04;;;;;;;;;10.25;9.75;;;;;10.72;55.48;101377.28;5022074;28;45618;-83
2023/04/26 02:38:32;;;;;;;;;11.00;9.50;;;;;10.65;55.34;101358.78;5013245;28;45575;-83
2023/04/26 02:41:02;;;;;;;;;11.50;11.00;;;;;10.71;55.51;101361.34;5011926;28;48178;-83
2023/04/26 02:43:27;;;;;;;;;7.25;7.25;;;;;10.71;55.83;101358.66;5011955;28;45675;-83
2023/04/26 02:45:53;;;;;;;;;14.00;10.25;;;;;10.66;55.64;101353.44;4993857;28;45286;-83
2023/04/26 02:48:18;;;;;;;;;9.50;9.50;;;;;10.69;55.78;101358.69;4999237;28;45881;-83
2023/04/26 02:50:44;;;;;;;;;13.00;10.25;;;;;10.65;55.52;101354.31;5024432;28;45314;-83
2023/04/26 02:53:09;;;;;;;;;9.75;9.75;;;;;10.61;55.41;101349.97;5004295;28;52944;-83
2023/04/26 02:55:36;;;;;;;;;14.50;11.50;;;;;10.62;55.58;101354.38;5022029;28;45480;-83
2023/04/26 02:58:02;;;;;;;;;10.00;10.00;;;;;10.55;55.18;101344.78;5015970;28;45272;-83
2023/04/26 03:00:27;;;;;;;;;12.75;10.00;;;;;10.55;55.82;101355.44;4999529;28;48688;-84
2023/04/26 03:02:52;;;;;;;;;12.00;10.00;;;;;10.43;55.44;101340.59;5000381;28;45212;-84
2023/04/26 03:05:18;;;;;;;;;10.75;9.75;;;;;10.51;55.73;101357.31;5031760;28;45303;-84
2023/04/26 03:07:44;;;;;;;;;8.75;8.50;;;;;10.46;55.69;101339.66;5031958;28;45393;-83
2023/04/26 03:10:10;;;;;;;;;13.75;9.50;;;;;10.44;55.46;101336.13;5031445;28;45427;-83
2023/04/26 03:12:35;;;;;;;;;11.25;10.75;;;;;10.45;55.82;101346.75;5009934;28;45367;-83
2023/04/26 03:15:02;;;;;;;;;9.00;9.00;;;;;10.43;55.79;101350.41;5030444;28;44779;-83
2023/04/26 03:17:28;;;;;;;;;11.50;11.50;;;;;10.45;56.27;101343.22;5006889;28;45659;-83
2023/04/26 03:19:53;;;;;;;;;9.25;8.25;;;;;10.45;55.95;101341.44;5025465;28;45308;-83
2023/04/26 03:22:18;;;;;;;;;13.00;11.00;;;;;10.48;56.30;101336.03;5020489;28;45274;-83
2023/04/26 03:24:45;;;;;;;;;11.50;10.00;;;;;10.29;55.86;101311.50;5011859;28;45481;-83
2023/04/26 03:27:10;;;;;;;;;11.75;11.50;;;;;10.31;55.56;101327.50;5008474;28;45008;-83
2023/04/26 03:29:36;;;;;;;;;12.75;12.50;;;;;10.25;55.64;101332.97;5030473;28;45346;-83
2023/04/26 03:32:01;;;;;;;;;14.25;12.50;;;;;10.14;55.70;101322.50;5000802;28;45886;-83
2023/04/26 03:34:26;;;;;;;;;12.75;10.00;;;;;10.25;55.61;101343.63;5028032;28;45292;-83
2023/04/26 03:36:52;;;;;;;;;11.75;10.25;;;;;10.19;56.42;101341.97;5029796;28;45513;-83
2023/04/26 03:39:17;;;;;;;;;11.50;11.00;;;;;10.18;55.70;101341.09;5031804;28;46277;-83
2023/04/26 03:41:43;;;;;;;;;11.25;10.75;;;;;10.18;56.36;101338.41;5020868;28;45601;-84
2023/04/26 03:44:08;;;;;;;;;13.25;12.00;;;;;10.17;56.13;101330.44;5026056;28;45362;-84
2023/04/26 03:46:33;;;;;;;;;12.50;10.50;;;;;10.24;56.11;101349.88;5014158;28;45494;-83
2023/04/26 03:48:59;;;;;;;;;12.75;11.00;;;;;10.15;56.13;101330.47;5022979;28;57411;-83
2023/04/26 03:51:26;;;;;;;;;9.50;9.50;;;;;10.08;55.96;101320.84;5010470;28;45296;-83
2023/04/26 03:53:51;;;;;;;;;15.00;13.00;;;;;10.03;56.29;101333.41;5001962;28;45373;-84
2023/04/26 03:56:16;;;;;;;;;8.00;8.00;;;;;9.87;56.47;101319.50;4998379;28;45328;-83
2023/04/26 03:58:42;;;;;;;;;14.50;13.75;;;;;9.94;56.21;101336.25;5004145;28;47246;-83
2023/04/26 04:01:07;;;;;;;;;13.50;13.50;;;;;9.85;56.38;101321.31;5022615;28;50494;-83
2023/04/26 04:03:32;;;;;;;;;15.50;13.00;;;;;9.83;56.47;101328.47;5038912;28;45229;-83
2023/04/26 04:05:58;;;;;;;;;13.75;12.25;;;;;9.83;56.81;101328.47;5044729;28;45211;-83
2023/04/26 04:08:23;;;;;;;;;8.00;8.00;;;;;9.83;56.50;101340.00;5017500;28;48496;-83
2023/04/26 04:10:49;;;;;;;;;13.75;11.25;;;;;9.82;56.54;101334.72;5024408;28;45430;-83
2023/04/26 04:13:14;;;;;;;;;13.75;12.50;;;;;9.70;56.64;101319.84;5021900;28;46610;-83
2023/04/26 04:15:40;;;;;;;;;15.00;13.00;;;;;9.71;56.88;101339.41;5021149;28;47033;-83
2023/04/26 04:18:05;;;;;;;;;13.00;13.00;;;;;9.64;57.05;101336.84;5019630;28;45277;-83
2023/04/26 04:20:30;;;;;;;;;13.75;13.25;;;;;9.54;56.72;101324.59;5036157;28;45321;-83
2023/04/26 04:22:57;;;;;;;;;11.25;11.00;;;;;9.67;57.00;101345.69;5018703;28;45234;-83
2023/04/26 04:25:24;;;;;;;;;10.50;9.00;;;;;9.63;57.36;101343.06;5013823;28;45309;-83
2023/04/26 04:27:50;;;;;;;;;15.50;14.50;;;;;9.62;56.83;101337.75;5013812;28;46403;-83
2023/04/26 04:30:16;;;;;;;;;15.00;13.75;;;;;9.61;57.36;101338.69;5017028;28;45477;-84
2023/04/26 04:32:45;;;;;;;;;10.25;8.75;;;;;9.58;57.12;101334.28;5005991;28;45501;-84
2023/04/26 04:35:11;;;;;;;;;14.50;13.75;;;;;9.50;57.13;101330.00;5024532;28;45454;-83
2023/04/26 04:37:36;;;;;;;;;15.00;13.50;;;;;9.50;56.82;101333.53;5023276;28;45755;-84
2023/04/26 04:40:03;;;;;;;;;16.50;14.00;;;;;9.43;57.21;101332.78;5003406;28;45392;-84
2023/04/26 04:42:28;;;;;;;;;13.25;12.75;;;;;9.41;57.58;101329.25;5021651;28;45362;-83
2023/04/26 04:44:54;;;;;;;;;13.50;13.25;;;;;9.53;57.41;101341.47;5033767;28;45264;-84
2023/04/26 04:47:19;;;;;;;;;13.00;9.75;;;;;9.46;57.49;101323.84;5019411;28;47521;-83
2023/04/26 04:49:44;;;;;;;;;15.75;14.25;;;;;9.57;57.40;101339.63;5015545;28;45383;-84
2023/04/26 04:52:10;;;;;;;;;11.25;10.25;;;;;9.50;57.51;101335.34;5020437;28;45304;-84
2023/04/26 04:54:35;;;;;;;;;17.50;13.75;;;;;9.53;57.57;101343.28;5034848;28;45291;-84
2023/04/26 04:57:01;;;;;;;;;13.00;13.00;;;;;9.49;57.75;101331.81;5035472;28;45240;-84
2023/04/26 04:59:27;;;;;;;;;11.25;10.50;;;;;9.50;57.23;101338.88;5015918;28;45398;-84
2023/04/26 05:01:52;;;;;;;;;12.75;12.25;;;;;9.46;57.62;101334.50;5023537;28;45472;-84
2023/04/26 05:04:17;;;;;;;;;16.00;14.00;;;;;9.44;57.49;101334.53;5024328;28;45414;-84
2023/04/26 05:06:43;;;;;;;;;9.00;9.00;;;;;9.41;57.30;101342.59;5031862;28;45409;-84
2023/04/26 05:09:09;;;;;;;;;11.00;10.00;;;;;9.34;57.82;101316.97;5013457;28;45341;-78
2023/04/26 05:11:34;;;;;;;;;15.75;15.50;;;;;9.44;57.58;101331.88;5028791;28;45384;-78
2023/04/26 05:14:00;;;;;;;;;14.50;13.75;;;;;9.48;57.46;101321.16;5014304;28;45377;-78
2023/04/26 05:16:26;;;;;;;;;10.25;9.00;;;;;9.36;57.74;101303.63;5031097;28;47157;-78
2023/04/26 05:18:51;;;;;;;;;15.50;14.00;;;;;9.44;57.63;101312.34;5022201;28;45164;-78
2023/04/26 05:21:16;;;;;;;;;14.50;13.75;;;;;9.59;57.92;101335.19;5023981;28;45295;-78
2023/04/26 05:23:42;;;;;;;;;18.50;16.25;;;;;9.60;58.29;101335.13;5016178;28;45239;-78
2023/04/26 05:26:11;;;;;;;;;16.25;15.25;;;;;9.62;58.20;101341.31;5002586;28;48349;-78
2023/04/26 05:28:37;;;;;;;;;21.25;17.00;;;;;9.64;58.17;101331.50;5012702;28;45377;-78
2023/04/26 05:31:03;;;;;;;;;15.50;13.25;;;;;9.63;57.69;101337.72;5001705;28;45446;-77
2023/04/26 05:33:28;;;;;;;;;13.00;12.75;;;;;9.63;57.63;101342.19;4980431;28;45360;-77
2023/04/26 05:35:56;;;;;;;;;13.75;12.00;;;;;9.77;58.17;101352.59;5002758;28;47997;-77
2023/04/26 05:38:22;;;;;;;;;14.00;13.50;;;;;9.69;57.93;101322.53;4986702;28;45021;-77
2023/04/26 05:40:47;;;;;;;;;14.75;14.00;;;;;9.80;57.92;101347.19;5003777;28;45272;-78
2023/04/26 05:43:13;;;;;;;;;15.25;15.00;;;;;9.88;58.19;101355.94;4983932;28;56353;-77
2023/04/26 05:45:38;;;;;;;;;14.50;11.50;;;;;9.95;57.86;101359.34;5003264;28;45244;-78
2023/04/26 05:48:04;;;;;;;;;11.25;10.25;;;;;9.94;57.53;101345.16;5003561;28;45296;-77
2023/04/26 05:50:30;;;;;;;;;16.75;15.00;;;;;9.95;58.00;101365.56;4993005;28;46936;-77
2023/04/26 05:52:55;;;;;;;;;14.50;13.50;;;;;9.99;57.86;101359.25;4990591;28;45405;-77
2023/04/26 05:55:20;;;;;;;;;15.25;12.50;;;;;10.07;57.87;101352.88;5018224;28;48917;-77
2023/04/26 05:57:45;;;;;;;;;14.75;13.75;;;;;10.10;57.87;101351.03;4998115;28;45398;-77
2023/04/26 06:00:12;;;;;;;;;14.75;13.00;;;;;9.99;57.41;101339.72;5005517;28;45500;-77
2023/04/26 06:02:37;;;;;;;;;18.00;15.00;;;;;10.07;58.00;101345.75;5006779;28;45420;-77
2023/04/26 06:05:05;;;;;;;;;13.75;13.25;;;;;10.00;57.54;101331.66;5005499;28;45745;-77
2023/04/26 06:07:30;;;;;;;;;16.00;13.25;;;;;10.08;57.76;101357.31;4990381;28;45412;-77
2023/04/26 06:09:56;;;;;;;;;16.00;16.00;;;;;10.15;57.21;101365.16;4988672;28;45461;-78
2023/04/26 06:12:21;;;;;;;;;16.00;14.00;;;;;10.17;57.18;101363.34;5011102;28;46053;-78
2023/04/26 06:14:46;;;;;;;;;10.50;8.00;;;;;10.14;57.32;101360.75;5003577;28;45280;-78
2023/04/26 06:17:12;;;;;;;;;13.50;11.75;;;;;10.07;57.23;101343.09;5008050;28;51121;-77
2023/04/26 06:19:37;;;;;;;;;10.00;10.00;;;;;10.19;57.05;101366.00;5013966;28;45192;-77
2023/04/26 06:22:02;;;;;;;;;16.00;15.75;;;;;10.17;57.08;101366.03;4994193;28;47916;-77
2023/04/26 06:24:29;;;;;;;;;14.50;13.25;;;;;10.15;57.41;101364.28;4986066;28;47072;-78
2023/04/26 06:26:54;;;;;;;;;10.75;10.25;;;;;10.18;57.50;101377.56;5014204;28;45197;-78
2023/04/26 06:29:20;;;;;;;;;12.00;10.75;;;;;10.07;57.14;101350.22;5025158;28;45681;-77
2023/04/26 06:31:45;;;;;;;;;9.25;9.00;;;;;10.18;57.35;101364.22;5001812;28;45340;-77
2023/04/26 06:34:11;;;;;;;;;15.50;14.25;;;;;10.17;57.18;101352.69;5006530;28;46522;-77
2023/04/26 06:36:36;;;;;;;;;13.75;12.50;;;;;10.24;58.03;101355.19;5010642;28;45391;-77
2023/04/26 06:39:02;;;;;;;;;16.50;12.75;;;;;10.28;57.51;101349.78;4999099;28;45494;-77
2023/04/26 06:41:27;;;;;;;;;14.00;12.75;;;;;10.27;57.29;101356.00;5000834;28;45404;-77
2023/04/26 06:43:52;;;;;;;;;13.25;11.75;;;;;10.20;57.12;101352.59;5001450;28;47107;-77
2023/04/26 06:46:18;;;;;;;;;12.25;12.25;;;;;10.19;57.06;101353.53;5012638;28;55237;-80
2023/04/26 06:48:43;;;;;;;;;14.25;11.00;;;;;10.15;57.42;101350.94;5015912;28;45749;-80
2023/04/26 06:51:08;;;;;;;;;17.25;16.25;;;;;10.19;57.21;101356.19;5003945;28;45911;-80
2023/04/26 06:53:35;;;;;;;;;18.50;16.50;;;;;10.11;57.40;101350.13;5030116;28;46036;-79
2023/04/26 06:56:01;;;;;;;;;15.50;15.25;;;;;10.13;57.85;101342.09;5012717;28;45410;-80
2023/04/26 06:58:26;;;;;;;;;13.25;13.25;;;;;10.22;57.75;101357.91;4994565;28;45280;-80
2023/04/26 07:00:51;;;;;;;;;15.75;14.00;;;;;10.29;57.61;101366.66;4993836;28;49293;-80
2023/04/26 07:03:17;;;;;;;;;19.75;18.25;;;;;10.21;57.86;101353.50;5006440;28;52283;-80
2023/04/26 07:05:42;;;;;;;;;16.00;15.50;;;;;10.15;57.51;101342.94;5021396;28;45529;-84
2023/04/26 07:08:08;;;;;;;;;15.75;15.50;;;;;10.41;57.65;101365.53;5022278;28;46015;-80
2023/04/26 07:10:33;;;;;;;;;20.75;14.50;;;;;10.44;57.65;101373.47;5001795;28;45461;-82
2023/04/26 07:12:59;;;;;;;;;12.25;12.25;;;;;10.45;57.29;101373.47;5008603;28;45378;-82
2023/04/26 07:15:25;;;;;;;;;13.75;13.75;;;;;10.47;57.00;101373.44;5009491;28;45565;-82
2023/04/26 07:17:50;;;;;;;;;11.25;11.25;;;;;10.48;57.12;101372.53;5021814;28;45438;-82
2023/04/26 07:20:19;;;;;;;;;16.50;12.00;;;;;10.36;57.38;101355.00;5006701;28;45366;-82
2023/04/26 07:22:44;;;;;;;;;16.00;13.25;;;;;10.30;57.04;101347.94;5005252;28;47480;-81
2023/04/26 07:25:10;;;;;;;;;12.00;10.50;;;;;10.48;56.93;101372.53;5022499;28;45407;-79
2023/04/26 07:27:35;;;;;;;;;13.00;10.25;;;;;10.50;56.81;101378.69;5020886;28;45335;-79
2023/04/26 07:30:01;;;;;;;;;10.00;9.00;;;;;10.34;56.80;101348.78;5019323;28;45262;-78
2023/04/26 07:32:26;;;;;;;;;13.00;10.00;;;;;10.55;57.12;101374.13;5015837;28;46583;-78
2023/04/26 07:34:52;;;;;;;;;10.75;8.25;;;;;10.57;57.08;101372.31;5008642;28;45439;-79
2023/04/26 07:37:17;;;;;;;;;9.00;9.00;;;;;10.66;56.72;101374.78;5021411;28;45517;-78
2023/04/26 07:39:43;;;;;;;;;12.25;9.50;;;;;10.67;56.78;101357.81;5003336;28;45482;-85
2023/04/26 07:42:08;;;;;;;;;13.25;11.00;;;;;10.68;56.41;101356.06;5002409;28;47582;-87
2023/04/26 07:44:33;;;;;;;;;16.00;12.75;;;;;10.73;57.07;101355.03;5021907;28;45267;-87
2023/04/26 07:46:59;;;;;;;;;13.75;12.50;;;;;10.70;56.56;101333.72;5001681;28;45274;-86
2023/04/26 07:49:24;;;;;;;;;10.50;10.50;;;;;10.82;56.76;101343.25;5002489;28;45839;-85
2023/04/26 07:51:50;;;;;;;;;16.25;12.75;;;;;10.92;56.87;101351.91;5024325;28;45353;-82
2023/04/26 07:54:16;;;;;;;;;15.50;15.50;;;;;10.86;56.53;101328.91;5006779;28;45710;-82
2023/04/26 07:56:41;;;;;;;;;11.00;9.00;;;;;10.92;56.54;101330.56;5005017;28;45678;-82
2023/04/26 07:59:07;;;;;;;;;12.50;11.75;;;;;10.84;56.53;101319.16;5021765;28;45497;-84
2023/04/26 08:01:32;;;;;;;;;14.25;13.50;;;;;10.93;56.07;101333.19;5017394;28;45902;-83
2023/04/26 08:03:58;;;;;;;;;11.75;10.75;;;;;11.03;56.26;101357.88;5020809;28;45602;-83
2023/04/26 08:06:23;;;;;;;;;8.00;8.00;;;;;11.00;55.97;101355.28;5009204;28;45487;-83
2023/04/26 08:08:49;;;;;;;;;12.50;12.00;;;;;10.94;56.17;101340.28;5034506;28;45524;-83
2023/04/26 08:11:15;;;;;;;;;13.75;11.75;;;;;10.85;55.94;101326.28;5021655;28;47555;-83
2023/04/26 08:13:42;;;;;;;;;11.25;10.25;;;;;11.03;55.85;101344.53;5003521;28;45508;-83
2023/04/26 08:16:11;;;;;;;;;12.75;12.00;;;;;10.86;56.15;101323.56;5020683;28;46338;-82
2023/04/26 08:18:39;;;;;;;;;11.00;11.00;;;;;11.06;55.97;101354.25;4999535;28;45967;-84
2023/04/26 08:21:05;;;;;;;;;14.50;12.25;;;;;10.82;55.78;101308.53;5019122;28;46261;-83
2023/04/26 08:23:37;;;;;;;;;11.00;11.00;;;;;10.98;55.77;101319.72;5024860;28;45339;-81
2023/04/26 08:26:03;;;;;;;;;16.00;13.25;;;;;11.17;56.33;101344.19;5005565;28;45319;-81
2023/04/26 08:28:28;;;;;;;;;11.00;10.00;;;;;10.98;56.00;101295.69;5028906;28;46316;-81
2023/04/26 08:30:54;;;;;;;;;8.00;8.00;;;;;11.26;55.30;101341.28;5016894;28;45333;-81
2023/04/26 08:33:19;;;;;;;;;15.00;12.75;;;;;11.08;55.49;101291.00;5024502;28;46207;-81
2023/04/26 08:35:45;;;;;;;;;11.25;10.00;;;;;11.19;55.99;101302.25;5025463;28;45548;-81
2023/04/26 08:38:10;;;;;;;;;11.75;10.50;;;;;11.20;55.29;101290.66;5003670;28;46557;-81
2023/04/26 08:40:36;;;;;;;;;11.25;11.00;;;;;11.17;55.41;101273.84;5024294;28;46274;-81
2023/04/26 08:43:01;;;;;;;;;13.50;11.00;;;;;11.56;55.80;101327.13;5021623;28;45307;-81
2023/04/26 08:45:26;;;;;;;;;11.25;10.25;;;;;11.47;55.48;101307.75;5006306;28;45435;-81
2023/04/26 08:47:55;;;;;;;;;9.75;9.75;;;;;11.49;55.30;101300.59;5019018;28;46139;-81
2023/04/26 08:50:22;;;;;;;;;11.75;10.75;;;;;11.53;55.25;101309.41;5020880;28;45564;-81
2023/04/26 08:52:50;;;;;;;;;11.25;10.00;;;;;11.58;55.39;101306.59;5029978;28;45481;-81
2023/04/26 08:55:17;;;;;;;;;12.75;10.75;;;;;11.59;55.88;101301.19;5023031;28;45404;-81
2023/04/26 08:57:45;;;;;;;;;12.50;11.00;;;;;11.72;55.54;101299.06;5015512;28;46001;-80
2023/04/26 09:00:12;;;;;;;;;10.25;9.75;;;;;11.64;55.51;101279.66;5019943;28;45531;-81
2023/04/26 09:02:41;;;;;;;;;12.75;9.75;;;;;12.04;55.40;101335.63;5015426;28;45394;-83
2023/04/26 09:05:07;;;;;;;;;10.00;10.00;;;;;11.94;54.87;101307.38;5007266;28;45495;-80
2023/04/26 09:07:44;;;;;;;;;10.50;10.00;;;;;11.96;55.17;101300.19;5019627;28;45438;-79
2023/04/26 09:10:11;;;;;;;;;11.00;9.00;;;;;12.23;55.00;101329.75;5020615;28;45326;-81
2023/04/26 09:12:36;;;;;;;;;10.75;9.50;;;;;12.16;54.75;101312.09;5028041;28;44968;-81
2023/04/26 09:15:03;;;;;;;;;12.50;8.75;;;;;12.13;55.10;101297.00;5005447;28;45332;-80
2023/04/26 09:17:40;;;;;;;;;7.50;6.50;;;;;12.20;54.85;101297.72;5023469;28;44836;-80
2023/04/26 09:20:26;;;;;;;;;8.75;7.00;;;;;12.20;54.95;101276.28;5022273;28;45371;-81
2023/04/26 09:23:12;;;;;;;;;12.00;7.25;;;;;12.49;54.39;101315.53;5021298;28;45560;-80
2023/04/26 09:25:37;;;;;;;;;10.25;8.50;;;;;12.49;54.05;101314.66;5002310;28;45185;-80
2023/04/26 09:28:03;;;;;;;;;10.00;8.25;;;;;12.46;53.73;101310.28;5003978;28;45362;-80
2023/04/26 09:30:29;;;;;;;;;10.75;9.50;;;;;12.40;53.71;101299.78;5018811;28;45743;-80
2023/04/26 09:32:57;;;;;;;;;10.75;8.25;;;;;12.49;53.72;101303.97;5018130;28;45727;-80
2023/04/26 09:35:28;;;;;;;;;8.50;7.75;;;;;12.62;53.85;101321.38;5025439;28;45448;-80
2023/04/26 09:37:55;;;;;;;;;11.50;11.50;;;;;12.57;53.92;101294.75;5003969;28;45661;-80
2023/04/26 09:40:22;;;;;;;;;11.00;6.75;;;;;12.69;53.53;101314.03;5005596;28;47468;-80
2023/04/26 09:42:56;;;;;;;;;7.50;6.25;;;;;12.70;53.45;101300.59;5015676;28;44961;-80
2023/04/26 09:45:22;;;;;;;;;9.00;6.25;;;;;12.78;53.40;101308.41;5006778;28;45701;-80
2023/04/26 09:47:48;;;;;;;;;7.00;7.00;;;;;12.79;53.03;101297.59;5003860;28;45315;-80
2023/04/26 09:50:24;;;;;;;;;7.00;7.00;;;;;12.97;53.08;101314.88;5011142;28;48445;-81
2023/04/26 09:52:49;;;;;;;;;9.75;5.00;;;;;12.98;52.76;101297.88;5024010;28;45607;-83
2023/04/26 09:55:26;;;;;;;;;9.75;6.00;;;;;12.83;52.62;101273.41;5023557;28;45319;-82
2023/04/26 09:57:51;;;;;;;;;7.00;7.00;;;;;12.97;52.44;101296.13;4992819;28;45443;-82
2023/04/26 10:00:18;;;;;;;;;7.00;7.00;;;;;13.12;52.37;101300.09;5021169;28;45373;-81
2023/04/26 10:02:46;;;;;;;;;6.25;5.75;;;;;13.10;52.74;101285.88;5016747;28;45334;-81
2023/04/26 10:05:11;;;;;;;;;5.25;5.25;;;;;12.94;52.46;101239.94;5021606;28;45386;-81
2023/04/26 10:07:38;;;;;;;;;9.00;7.25;;;;;13.09;52.24;101256.44;5022216;28;45683;-81
2023/04/26 10:10:04;;;;;;;;;6.00;6.00;;;;;13.13;52.48;101260.75;5004312;28;48310;-81
2023/04/26 10:12:30;;;;;;;;;6.00;4.25;;;;;13.32;52.34;101267.25;4988446;28;45766;-81
2023/04/26 10:14:56;;;;;;;;;8.50;8.50;;;;;13.11;52.09;101234.03;5023461;28;45530;-80
2023/04/26 10:17:21;;;;;;;;;8.00;6.75;;;;;13.42;51.54;101281.22;5019070;28;45238;-81
2023/04/26 10:19:52;;;;;;;;;6.50;6.50;;;;;13.34;51.39;101270.75;4998698;28;47628;-81
2023/04/26 10:22:24;;;;;;;;;7.50;7.50;;;;;13.36;50.73;101273.38;5022229;28;45539;-81
2023/04/26 10:24:52;;;;;;;;;11.25;8.50;;;;;13.30;51.19;101261.06;5000974;28;45377;-82
2023/04/26 10:27:43;;;;;;;;;12.50;7.00;;;;;13.44;51.19;101267.75;5001344;28;45538;-82
2023/04/26 10:30:13;;;;;;;;;5.00;5.00;;;;;13.48;51.21;101272.06;4996676;28;48160;-83
2023/04/26 10:32:51;;;;;;;;;6.00;6.00;;;;;13.54;51.10;101261.13;5015129;28;45370;-83
2023/04/26 10:35:17;;;;;;;;;8.50;7.50;;;;;13.53;50.73;101245.97;5003036;28;45413;-83
2023/04/26 10:38:00;;;;;;;;;9.00;7.25;;;;;13.58;50.82;101248.47;5021510;28;45263;-83
2023/04/26 10:40:30;;;;;;;;;8.25;6.00;;;;;13.34;50.49;101197.50;5020775;28;46557;-83
2023/04/26 10:43:11;;;;;;;;;8.75;8.75;;;;;13.78;50.57;101263.84;5001710;28;45438;-80
2023/04/26 10:46:30;;;;;;;;;;;;;;;;;;;;;
2023/04/26 10:56:31;;;;;;;;;5.50;5.50;;;;;13.93;50.13;101270.44;4962823;23;47158;-60
2023/04/26 10:59:10;;;;;;;;;6.25;6.25;;;;;13.96;49.47;101267.63;4995516;28;45588;-60
2023/04/26 11:01:36;;;;;;;;;7.75;5.75;;;;;13.90;50.05;101249.97;4990818;28;45593;-59
2023/04/26 11:04:10;;;;;;;;;6.25;6.25;;;;;13.95;49.87;101247.97;4963993;28;46347;-59
2023/04/26 11:06:54;;;;;;;;;8.00;8.00;;;;;14.02;50.01;101264.72;5000542;28;45728;-59
2023/04/26 11:09:31;;;;;;;;;6.00;6.00;;;;;14.02;49.17;101264.72;5003027;28;45405;-59
2023/04/26 11:11:57;;;;;;;;;7.50;6.00;;;;;13.99;49.35;101254.97;4983981;28;45762;-61
2023/04/26 11:14:22;;;;;;;;;8.75;8.25;;;;;14.02;49.46;101254.84;4995464;28;46507;-61
2023/04/26 11:16:48;;;;;;;;;7.50;6.25;;;;;14.01;49.47;101252.22;4974493;28;49289;-61
2023/04/26 11:19:13;;;;;;;;;5.00;3.75;;;;;14.04;49.29;101254.81;4990630;28;45799;-61
2023/04/26 11:21:39;;;;;;;;;6.50;6.50;;;;;14.03;48.91;101255.72;4992336;28;45437;-64